sensor_id;sensor_type;location;lat;lon;timestamp;P1;durP1;ratioP1;P2;durP2;ratioP2
47545;SDS011;50104;52.002;4.688;2022-11-25T00:03:09;8.93;;;2.95;;
47545;SDS011;50104;52.002;4.688;2022-11-25T00:08:10;15.18;;;3.13;;
47545;SDS011;50104;52.002;4.688;2022-11-25T00:13:12;15.18;;;3.25;;
47545;SDS011;50104;52.002;4.688;2022-11-25T00:18:13;10.45;;;3.42;;
47545;SDS011;50104;52.002;4.688;2022-11-25T00:23:14;10.15;;;3.85;;
47545;SDS011;50104;52.002;4.688;2022-11-25T00:28:15;9.25;;;4.07;;
47545;SDS011;50104;52.002;4.688;2022-11-25T00:33:17;10.85;;;3.30;;
47545;SDS011;50104;52.002;4.688;2022-11-25T00:38:18;14.27;;;3.60;;
47545;SDS011;50104;52.002;4.688;2022-11-25T00:43:19;11.95;;;3.45;;
47545;SDS011;50104;52.002;4.688;2022-11-25T00:48:38;14.05;;;3.20;;
47545;SDS011;50104;52.002;4.688;2022-11-25T00:53:39;12.35;;;3.00;;
47545;SDS011;50104;52.002;4.688;2022-11-25T00:58:40;9.50;;;3.25;;
47545;SDS011;50104;52.002;4.688;2022-11-25T01:03:42;14.10;;;4.10;;
47545;SDS011;50104;52.002;4.688;2022-11-25T01:08:43;13.20;;;4.13;;
47545;SDS011;50104;52.002;4.688;2022-11-25T01:13:44;12.82;;;4.18;;
47545;SDS011;50104;52.002;4.688;2022-11-25T01:18:46;10.68;;;4.88;;
47545;SDS011;50104;52.002;4.688;2022-11-25T01:23:49;11.18;;;4.20;;
47545;SDS011;50104;52.002;4.688;2022-11-25T01:28:55;18.80;;;4.50;;
47545;SDS011;50104;52.002;4.688;2022-11-25T01:34:02;9.15;;;4.70;;
47545;SDS011;50104;52.002;4.688;2022-11-25T01:39:10;13.52;;;4.20;;
47545;SDS011;50104;52.002;4.688;2022-11-25T01:54:48;15.77;;;3.30;;
47545;SDS011;50104;52.002;4.688;2022-11-25T01:59:56;12.15;;;3.20;;
47545;SDS011;50104;52.002;4.688;2022-11-25T02:05:02;11.77;;;2.80;;
47545;SDS011;50104;52.002;4.688;2022-11-25T02:10:11;10.27;;;3.58;;
47545;SDS011;50104;52.002;4.688;2022-11-25T02:15:17;11.57;;;3.25;;
47545;SDS011;50104;52.002;4.688;2022-11-25T02:20:19;8.43;;;2.78;;
47545;SDS011;50104;52.002;4.688;2022-11-25T02:25:23;11.45;;;3.70;;
47545;SDS011;50104;52.002;4.688;2022-11-25T02:30:31;11.07;;;3.40;;
47545;SDS011;50104;52.002;4.688;2022-11-25T02:35:37;10.13;;;2.78;;
47545;SDS011;50104;52.002;4.688;2022-11-25T02:41:07;12.05;;;2.67;;
47545;SDS011;50104;52.002;4.688;2022-11-25T02:46:15;9.23;;;2.20;;
47545;SDS011;50104;52.002;4.688;2022-11-25T02:51:19;12.52;;;2.40;;
47545;SDS011;50104;52.002;4.688;2022-11-25T02:56:25;8.75;;;1.75;;
47545;SDS011;50104;52.002;4.688;2022-11-25T03:01:32;9.38;;;2.05;;
47545;SDS011;50104;52.002;4.688;2022-11-25T03:06:34;11.32;;;2.92;;
47545;SDS011;50104;52.002;4.688;2022-11-25T03:11:35;12.85;;;2.08;;
47545;SDS011;50104;52.002;4.688;2022-11-25T03:16:54;8.00;;;2.22;;
47545;SDS011;50104;52.002;4.688;2022-11-25T03:21:55;8.07;;;2.10;;
47545;SDS011;50104;52.002;4.688;2022-11-25T03:26:56;8.80;;;2.15;;
47545;SDS011;50104;52.002;4.688;2022-11-25T03:31:56;6.03;;;3.03;;
47545;SDS011;50104;52.002;4.688;2022-11-25T03:36:57;7.10;;;2.20;;
47545;SDS011;50104;52.002;4.688;2022-11-25T03:41:58;8.95;;;2.20;;
47545;SDS011;50104;52.002;4.688;2022-11-25T03:46:59;8.05;;;1.90;;
47545;SDS011;50104;52.002;4.688;2022-11-25T03:52:00;6.00;;;1.60;;
47545;SDS011;50104;52.002;4.688;2022-11-25T03:57:00;3.28;;;1.27;;
47545;SDS011;50104;52.002;4.688;2022-11-25T04:02:02;3.90;;;1.10;;
47545;SDS011;50104;52.002;4.688;2022-11-25T04:07:03;3.53;;;1.30;;
47545;SDS011;50104;52.002;4.688;2022-11-25T04:12:04;2.13;;;1.10;;
47545;SDS011;50104;52.002;4.688;2022-11-25T04:17:23;3.05;;;1.30;;
47545;SDS011;50104;52.002;4.688;2022-11-25T04:22:24;3.47;;;1.00;;
47545;SDS011;50104;52.002;4.688;2022-11-25T04:27:25;2.78;;;1.77;;
47545;SDS011;50104;52.002;4.688;2022-11-25T04:32:26;6.35;;;1.83;;
47545;SDS011;50104;52.002;4.688;2022-11-25T04:37:28;3.05;;;1.25;;
47545;SDS011;50104;52.002;4.688;2022-11-25T04:42:28;3.53;;;1.83;;
47545;SDS011;50104;52.002;4.688;2022-11-25T04:47:33;2.90;;;1.50;;
47545;SDS011;50104;52.002;4.688;2022-11-25T04:52:34;3.95;;;2.10;;
47545;SDS011;50104;52.002;4.688;2022-11-25T04:57:35;5.55;;;1.88;;
47545;SDS011;50104;52.002;4.688;2022-11-25T05:02:36;3.42;;;1.92;;
47545;SDS011;50104;52.002;4.688;2022-11-25T05:07:36;8.25;;;2.30;;
47545;SDS011;50104;52.002;4.688;2022-11-25T05:12:38;5.63;;;2.42;;
47545;SDS011;50104;52.002;4.688;2022-11-25T05:17:39;5.25;;;2.63;;
47545;SDS011;50104;52.002;4.688;2022-11-25T05:22:40;7.82;;;2.53;;
47545;SDS011;50104;52.002;4.688;2022-11-25T05:27:41;3.83;;;2.20;;
47545;SDS011;50104;52.002;4.688;2022-11-25T05:32:42;4.55;;;1.90;;
47545;SDS011;50104;52.002;4.688;2022-11-25T05:37:43;5.53;;;2.10;;
47545;SDS011;50104;52.002;4.688;2022-11-25T05:42:44;5.95;;;2.15;;
47545;SDS011;50104;52.002;4.688;2022-11-25T05:47:45;4.53;;;1.90;;
47545;SDS011;50104;52.002;4.688;2022-11-25T05:52:46;3.33;;;1.50;;
47545;SDS011;50104;52.002;4.688;2022-11-25T05:57:47;9.00;;;1.88;;
47545;SDS011;50104;52.002;4.688;2022-11-25T06:02:51;4.82;;;2.28;;
47545;SDS011;50104;52.002;4.688;2022-11-25T06:07:51;4.07;;;1.80;;
47545;SDS011;50104;52.002;4.688;2022-11-25T06:12:52;3.42;;;1.80;;
47545;SDS011;50104;52.002;4.688;2022-11-25T06:17:54;3.65;;;1.90;;
47545;SDS011;50104;52.002;4.688;2022-11-25T06:22:56;4.47;;;1.70;;
47545;SDS011;50104;52.002;4.688;2022-11-25T06:27:57;3.80;;;2.00;;
47545;SDS011;50104;52.002;4.688;2022-11-25T06:32:59;7.18;;;2.22;;
47545;SDS011;50104;52.002;4.688;2022-11-25T06:38:00;5.18;;;1.85;;
47545;SDS011;50104;52.002;4.688;2022-11-25T06:43:00;6.28;;;2.50;;
47545;SDS011;50104;52.002;4.688;2022-11-25T06:48:03;5.03;;;2.15;;
47545;SDS011;50104;52.002;4.688;2022-11-25T06:53:04;6.70;;;2.47;;
47545;SDS011;50104;52.002;4.688;2022-11-25T06:58:05;6.20;;;1.88;;
47545;SDS011;50104;52.002;4.688;2022-11-25T07:03:06;6.28;;;2.10;;
47545;SDS011;50104;52.002;4.688;2022-11-25T07:08:07;8.35;;;2.70;;
47545;SDS011;50104;52.002;4.688;2022-11-25T07:13:08;4.55;;;1.88;;
47545;SDS011;50104;52.002;4.688;2022-11-25T07:18:08;7.47;;;2.40;;
47545;SDS011;50104;52.002;4.688;2022-11-25T07:23:09;6.97;;;2.40;;
47545;SDS011;50104;52.002;4.688;2022-11-25T07:28:10;5.55;;;2.20;;
47545;SDS011;50104;52.002;4.688;2022-11-25T07:33:11;5.47;;;2.10;;
47545;SDS011;50104;52.002;4.688;2022-11-25T07:38:12;4.40;;;2.33;;
47545;SDS011;50104;52.002;4.688;2022-11-25T07:43:13;4.82;;;2.20;;
47545;SDS011;50104;52.002;4.688;2022-11-25T07:48:13;5.38;;;2.53;;
47545;SDS011;50104;52.002;4.688;2022-11-25T07:53:14;8.98;;;2.17;;
47545;SDS011;50104;52.002;4.688;2022-11-25T07:58:15;6.47;;;2.15;;
47545;SDS011;50104;52.002;4.688;2022-11-25T08:03:16;7.25;;;2.45;;
47545;SDS011;50104;52.002;4.688;2022-11-25T08:08:17;8.07;;;2.25;;
47545;SDS011;50104;52.002;4.688;2022-11-25T08:13:18;4.97;;;1.77;;
47545;SDS011;50104;52.002;4.688;2022-11-25T08:18:18;5.93;;;2.25;;
47545;SDS011;50104;52.002;4.688;2022-11-25T08:23:19;6.88;;;2.20;;
47545;SDS011;50104;52.002;4.688;2022-11-25T08:28:20;7.68;;;1.92;;
47545;SDS011;50104;52.002;4.688;2022-11-25T08:33:21;9.73;;;2.72;;
47545;SDS011;50104;52.002;4.688;2022-11-25T08:38:23;7.50;;;2.50;;
47545;SDS011;50104;52.002;4.688;2022-11-25T08:43:24;4.45;;;2.38;;
47545;SDS011;50104;52.002;4.688;2022-11-25T08:48:25;3.88;;;1.70;;
47545;SDS011;50104;52.002;4.688;2022-11-25T08:53:26;4.88;;;2.13;;
47545;SDS011;50104;52.002;4.688;2022-11-25T08:58:27;7.60;;;2.45;;
47545;SDS011;50104;52.002;4.688;2022-11-25T09:03:30;6.85;;;3.10;;
47545;SDS011;50104;52.002;4.688;2022-11-25T09:08:32;5.18;;;2.00;;
47545;SDS011;50104;52.002;4.688;2022-11-25T09:13:34;8.50;;;2.20;;
47545;SDS011;50104;52.002;4.688;2022-11-25T09:18:35;8.45;;;2.05;;
47545;SDS011;50104;52.002;4.688;2022-11-25T09:23:37;5.63;;;2.17;;
47545;SDS011;50104;52.002;4.688;2022-11-25T09:28:38;6.78;;;1.73;;
47545;SDS011;50104;52.002;4.688;2022-11-25T09:33:39;7.38;;;2.03;;
47545;SDS011;50104;52.002;4.688;2022-11-25T09:38:40;6.55;;;2.72;;
47545;SDS011;50104;52.002;4.688;2022-11-25T09:44:01;4.97;;;2.70;;
47545;SDS011;50104;52.002;4.688;2022-11-25T10:00:15;8.70;;;2.00;;
47545;SDS011;50104;52.002;4.688;2022-11-25T10:05:24;6.00;;;1.80;;
47545;SDS011;50104;52.002;4.688;2022-11-25T10:10:35;7.90;;;1.60;;
47545;SDS011;50104;52.002;4.688;2022-11-25T10:15:48;6.05;;;1.90;;
47545;SDS011;50104;52.002;4.688;2022-11-25T10:20:50;8.23;;;2.33;;
47545;SDS011;50104;52.002;4.688;2022-11-25T10:25:56;8.90;;;3.05;;
47545;SDS011;50104;52.002;4.688;2022-11-25T10:41:25;9.23;;;1.92;;
47545;SDS011;50104;52.002;4.688;2022-11-25T10:46:31;8.18;;;2.20;;
47545;SDS011;50104;52.002;4.688;2022-11-25T10:51:45;11.82;;;2.47;;
47545;SDS011;50104;52.002;4.688;2022-11-25T10:56:58;7.63;;;2.13;;
47545;SDS011;50104;52.002;4.688;2022-11-25T11:07:25;15.20;;;2.20;;
47545;SDS011;50104;52.002;4.688;2022-11-25T11:12:28;8.20;;;2.10;;
47545;SDS011;50104;52.002;4.688;2022-11-25T11:17:33;6.97;;;2.00;;
47545;SDS011;50104;52.002;4.688;2022-11-25T11:22:35;15.05;;;2.28;;
47545;SDS011;50104;52.002;4.688;2022-11-25T11:27:48;5.72;;;1.60;;
47545;SDS011;50104;52.002;4.688;2022-11-25T11:38:00;6.28;;;1.80;;
47545;SDS011;50104;52.002;4.688;2022-11-25T12:10:00;7.82;;;2.40;;
47545;SDS011;50104;52.002;4.688;2022-11-25T12:20:41;9.50;;;1.98;;
47545;SDS011;50104;52.002;4.688;2022-11-25T12:26:02;7.95;;;1.55;;
47545;SDS011;50104;52.002;4.688;2022-11-25T12:41:40;10.38;;;2.40;;
47545;SDS011;50104;52.002;4.688;2022-11-25T13:19:37;10.90;;;1.65;;
47545;SDS011;50104;52.002;4.688;2022-11-25T13:24:39;6.50;;;1.75;;
47545;SDS011;50104;52.002;4.688;2022-11-25T13:34:42;9.30;;;2.08;;
47545;SDS011;50104;52.002;4.688;2022-11-25T13:39:43;15.50;;;3.05;;
47545;SDS011;50104;52.002;4.688;2022-11-25T13:44:55;11.68;;;2.80;;
47545;SDS011;50104;52.002;4.688;2022-11-25T13:50:17;10.27;;;1.75;;
47545;SDS011;50104;52.002;4.688;2022-11-25T13:55:37;11.77;;;1.95;;
47545;SDS011;50104;52.002;4.688;2022-11-25T14:00:58;12.27;;;1.80;;
47545;SDS011;50104;52.002;4.688;2022-11-25T14:06:28;10.40;;;2.28;;
47545;SDS011;50104;52.002;4.688;2022-11-25T14:27:50;8.73;;;1.98;;
47545;SDS011;50104;52.002;4.688;2022-11-25T14:33:14;15.70;;;2.72;;
47545;SDS011;50104;52.002;4.688;2022-11-25T14:38:36;11.10;;;1.90;;
47545;SDS011;50104;52.002;4.688;2022-11-25T14:43:57;9.30;;;1.65;;
47545;SDS011;50104;52.002;4.688;2022-11-25T14:49:05;8.40;;;1.48;;
47545;SDS011;50104;52.002;4.688;2022-11-25T14:54:06;10.43;;;1.88;;
47545;SDS011;50104;52.002;4.688;2022-11-25T14:59:08;12.65;;;1.67;;
47545;SDS011;50104;52.002;4.688;2022-11-25T15:04:17;12.20;;;1.92;;
47545;SDS011;50104;52.002;4.688;2022-11-25T15:09:26;14.23;;;1.95;;
47545;SDS011;50104;52.002;4.688;2022-11-25T15:14:32;8.02;;;1.70;;
47545;SDS011;50104;52.002;4.688;2022-11-25T15:19:36;7.72;;;2.35;;
47545;SDS011;50104;52.002;4.688;2022-11-25T15:24:41;14.35;;;2.90;;
47545;SDS011;50104;52.002;4.688;2022-11-25T15:29:44;8.32;;;1.95;;
47545;SDS011;50104;52.002;4.688;2022-11-25T15:34:47;12.57;;;1.80;;
47545;SDS011;50104;52.002;4.688;2022-11-25T15:40:16;10.48;;;2.42;;
47545;SDS011;50104;52.002;4.688;2022-11-25T15:45:36;13.23;;;2.10;;
47545;SDS011;50104;52.002;4.688;2022-11-25T15:50:43;8.38;;;2.55;;
47545;SDS011;50104;52.002;4.688;2022-11-25T16:01:26;10.65;;;1.55;;
47545;SDS011;50104;52.002;4.688;2022-11-25T16:06:27;6.22;;;1.73;;
47545;SDS011;50104;52.002;4.688;2022-11-25T16:11:29;15.95;;;2.05;;
47545;SDS011;50104;52.002;4.688;2022-11-25T16:16:44;8.88;;;1.73;;
47545;SDS011;50104;52.002;4.688;2022-11-25T16:21:50;11.57;;;2.13;;
47545;SDS011;50104;52.002;4.688;2022-11-25T16:26:56;6.60;;;2.33;;
47545;SDS011;50104;52.002;4.688;2022-11-25T16:32:35;10.15;;;2.63;;
47545;SDS011;50104;52.002;4.688;2022-11-25T16:37:30;11.43;;;2.05;;
47545;SDS011;50104;52.002;4.688;2022-11-25T16:42:32;7.93;;;2.80;;
47545;SDS011;50104;52.002;4.688;2022-11-25T16:47:32;15.60;;;2.60;;
47545;SDS011;50104;52.002;4.688;2022-11-25T16:52:33;9.80;;;2.65;;
47545;SDS011;50104;52.002;4.688;2022-11-25T16:57:34;14.45;;;2.50;;
47545;SDS011;50104;52.002;4.688;2022-11-25T17:02:36;9.52;;;2.42;;
47545;SDS011;50104;52.002;4.688;2022-11-25T17:07:37;9.20;;;2.85;;
47545;SDS011;50104;52.002;4.688;2022-11-25T17:12:39;7.70;;;3.00;;
47545;SDS011;50104;52.002;4.688;2022-11-25T17:17:41;12.02;;;3.67;;
47545;SDS011;50104;52.002;4.688;2022-11-25T17:22:46;9.73;;;4.30;;
47545;SDS011;50104;52.002;4.688;2022-11-25T17:27:47;14.23;;;5.60;;
47545;SDS011;50104;52.002;4.688;2022-11-25T17:32:56;17.45;;;5.82;;
47545;SDS011;50104;52.002;4.688;2022-11-25T17:38:01;11.90;;;6.05;;
47545;SDS011;50104;52.002;4.688;2022-11-25T17:43:27;13.00;;;6.00;;
47545;SDS011;50104;52.002;4.688;2022-11-25T17:48:28;17.30;;;4.40;;
47545;SDS011;50104;52.002;4.688;2022-11-25T17:53:29;13.20;;;5.50;;
47545;SDS011;50104;52.002;4.688;2022-11-25T17:58:30;10.90;;;4.90;;
47545;SDS011;50104;52.002;4.688;2022-11-25T18:03:32;14.07;;;5.03;;
47545;SDS011;50104;52.002;4.688;2022-11-25T18:08:33;15.18;;;4.45;;
47545;SDS011;50104;52.002;4.688;2022-11-25T18:13:35;12.10;;;4.45;;
47545;SDS011;50104;52.002;4.688;2022-11-25T18:18:39;13.23;;;4.60;;
47545;SDS011;50104;52.002;4.688;2022-11-25T18:23:40;12.18;;;4.43;;
47545;SDS011;50104;52.002;4.688;2022-11-25T18:28:41;9.27;;;5.13;;
47545;SDS011;50104;52.002;4.688;2022-11-25T18:33:42;14.00;;;4.97;;
47545;SDS011;50104;52.002;4.688;2022-11-25T18:38:44;11.25;;;4.85;;
47545;SDS011;50104;52.002;4.688;2022-11-25T18:43:47;13.52;;;6.53;;
47545;SDS011;50104;52.002;4.688;2022-11-25T18:48:48;18.00;;;6.93;;
47545;SDS011;50104;52.002;4.688;2022-11-25T18:53:49;14.43;;;6.70;;
47545;SDS011;50104;52.002;4.688;2022-11-25T18:58:50;14.02;;;6.88;;
47545;SDS011;50104;52.002;4.688;2022-11-25T19:03:51;19.42;;;7.32;;
47545;SDS011;50104;52.002;4.688;2022-11-25T19:08:53;13.95;;;7.35;;
47545;SDS011;50104;52.002;4.688;2022-11-25T19:13:57;15.95;;;8.80;;
47545;SDS011;50104;52.002;4.688;2022-11-25T19:19:04;16.15;;;7.32;;
47545;SDS011;50104;52.002;4.688;2022-11-25T19:24:12;12.55;;;7.57;;
47545;SDS011;50104;52.002;4.688;2022-11-25T19:29:17;11.30;;;5.93;;
47545;SDS011;50104;52.002;4.688;2022-11-25T19:34:34;10.75;;;6.20;;
47545;SDS011;50104;52.002;4.688;2022-11-25T19:39:43;10.70;;;5.88;;
47545;SDS011;50104;52.002;4.688;2022-11-25T19:44:44;10.80;;;5.78;;
47545;SDS011;50104;52.002;4.688;2022-11-25T19:49:46;10.70;;;6.60;;
47545;SDS011;50104;52.002;4.688;2022-11-25T19:54:48;12.82;;;5.50;;
47545;SDS011;50104;52.002;4.688;2022-11-25T19:59:49;8.93;;;4.22;;
47545;SDS011;50104;52.002;4.688;2022-11-25T20:04:51;9.48;;;5.93;;
47545;SDS011;50104;52.002;4.688;2022-11-25T20:09:54;12.90;;;6.10;;
47545;SDS011;50104;52.002;4.688;2022-11-25T20:15:00;17.05;;;6.10;;
47545;SDS011;50104;52.002;4.688;2022-11-25T20:20:03;11.75;;;5.85;;
47545;SDS011;50104;52.002;4.688;2022-11-25T20:25:27;16.58;;;6.45;;
47545;SDS011;50104;52.002;4.688;2022-11-25T20:30:28;17.90;;;6.53;;
47545;SDS011;50104;52.002;4.688;2022-11-25T20:35:29;12.27;;;6.03;;
47545;SDS011;50104;52.002;4.688;2022-11-25T20:40:37;17.85;;;6.32;;
47545;SDS011;50104;52.002;4.688;2022-11-25T20:45:39;19.60;;;6.30;;
47545;SDS011;50104;52.002;4.688;2022-11-25T20:50:40;13.80;;;6.28;;
47545;SDS011;50104;52.002;4.688;2022-11-25T20:55:42;16.27;;;7.68;;
47545;SDS011;50104;52.002;4.688;2022-11-25T21:00:45;19.63;;;7.13;;
47545;SDS011;50104;52.002;4.688;2022-11-25T21:05:50;18.77;;;6.40;;
47545;SDS011;50104;52.002;4.688;2022-11-25T21:10:53;18.55;;;7.60;;
47545;SDS011;50104;52.002;4.688;2022-11-25T21:15:56;23.98;;;9.70;;
47545;SDS011;50104;52.002;4.688;2022-11-25T21:20:57;23.27;;;8.13;;
47545;SDS011;50104;52.002;4.688;2022-11-25T21:26:03;17.70;;;7.53;;
47545;SDS011;50104;52.002;4.688;2022-11-25T21:31:13;22.70;;;6.72;;
47545;SDS011;50104;52.002;4.688;2022-11-25T21:36:22;14.73;;;6.20;;
47545;SDS011;50104;52.002;4.688;2022-11-25T21:41:27;16.77;;;6.47;;
47545;SDS011;50104;52.002;4.688;2022-11-25T21:46:28;15.02;;;6.05;;
47545;SDS011;50104;52.002;4.688;2022-11-25T21:51:29;19.05;;;5.63;;
47545;SDS011;50104;52.002;4.688;2022-11-25T21:56:31;13.90;;;5.28;;
47545;SDS011;50104;52.002;4.688;2022-11-25T22:01:34;14.18;;;5.35;;
47545;SDS011;50104;52.002;4.688;2022-11-25T22:06:34;18.25;;;5.65;;
47545;SDS011;50104;52.002;4.688;2022-11-25T22:11:36;16.45;;;4.80;;
47545;SDS011;50104;52.002;4.688;2022-11-25T22:16:41;17.48;;;6.28;;
47545;SDS011;50104;52.002;4.688;2022-11-25T22:21:41;18.52;;;8.38;;
47545;SDS011;50104;52.002;4.688;2022-11-25T22:26:43;14.90;;;5.18;;
47545;SDS011;50104;52.002;4.688;2022-11-25T22:31:46;14.52;;;4.65;;
47545;SDS011;50104;52.002;4.688;2022-11-25T22:36:48;16.90;;;4.60;;
47545;SDS011;50104;52.002;4.688;2022-11-25T22:41:51;8.75;;;4.60;;
47545;SDS011;50104;52.002;4.688;2022-11-25T22:46:57;9.77;;;4.82;;
47545;SDS011;50104;52.002;4.688;2022-11-25T22:51:58;17.02;;;4.50;;
47545;SDS011;50104;52.002;4.688;2022-11-25T22:56:59;14.75;;;5.30;;
47545;SDS011;50104;52.002;4.688;2022-11-25T23:02:00;9.57;;;4.28;;
47545;SDS011;50104;52.002;4.688;2022-11-25T23:07:11;8.52;;;4.03;;
47545;SDS011;50104;52.002;4.688;2022-11-25T23:12:53;12.02;;;3.95;;
47545;SDS011;50104;52.002;4.688;2022-11-25T23:18:23;11.70;;;4.10;;
47545;SDS011;50104;52.002;4.688;2022-11-25T23:24:21;9.50;;;4.00;;
47545;SDS011;50104;52.002;4.688;2022-11-25T23:29:55;11.50;;;3.95;;
47545;SDS011;50104;52.002;4.688;2022-11-25T23:34:57;15.13;;;3.70;;
47545;SDS011;50104;52.002;4.688;2022-11-25T23:39:58;10.88;;;4.28;;
47545;SDS011;50104;52.002;4.688;2022-11-25T23:44:58;9.35;;;4.53;;
47545;SDS011;50104;52.002;4.688;2022-11-25T23:49:59;10.68;;;3.53;;
47545;SDS011;50104;52.002;4.688;2022-11-25T23:55:00;12.27;;;3.85;;
